createdAt,value
2018-05-09T00:00:21.349Z,97.31
2018-05-09T00:02:48.829Z,97.73
2018-05-09T00:05:16.292Z,98.99
2018-05-09T00:07:43.751Z,98.77
2018-05-09T00:10:11.236Z,98.25
2018-05-09T00:12:38.704Z,99.23
2018-05-09T00:15:06.191Z,99.70
2018-05-09T00:17:33.649Z,99.99
2018-05-09T00:20:01.130Z,100.00
2018-05-09T00:22:28.599Z,100.00
2018-05-09T00:24:57.552Z,100.00
2018-05-09T00:27:25.169Z,100.00
2018-05-09T00:29:52.668Z,100.00
2018-05-09T00:32:20.169Z,100.00
2018-05-09T00:34:47.647Z,100.00
2018-05-09T00:37:15.120Z,100.00
2018-05-09T00:39:42.619Z,100.00
2018-05-09T00:42:10.092Z,100.00
2018-05-09T00:44:37.589Z,100.00
2018-05-09T00:47:05.066Z,100.00
2018-05-09T00:49:32.932Z,100.00
2018-05-09T00:52:00.426Z,100.00
2018-05-09T00:54:34.680Z,100.00
2018-05-09T00:57:02.169Z,100.00
2018-05-09T00:59:29.637Z,100.00
2018-05-09T01:01:57.107Z,100.00
2018-05-09T01:04:24.599Z,100.00
2018-05-09T01:06:52.076Z,100.00
2018-05-09T01:09:19.580Z,100.00
2018-05-09T01:11:47.048Z,100.00
2018-05-09T01:14:14.520Z,100.00
2018-05-09T01:16:42.016Z,100.00
2018-05-09T01:19:09.479Z,100.00
2018-05-09T01:21:36.970Z,100.00
2018-05-09T01:24:05.027Z,100.00
2018-05-09T01:26:32.501Z,100.00
2018-05-09T01:29:00.005Z,100.00
2018-05-09T01:31:27.472Z,100.00
2018-05-09T01:33:54.961Z,100.00
2018-05-09T01:36:22.428Z,100.00
2018-05-09T01:38:49.895Z,100.00
2018-05-09T01:41:17.379Z,100.00
2018-05-09T01:43:44.853Z,100.00
2018-05-09T01:46:12.652Z,100.00
2018-05-09T01:48:40.123Z,100.00
2018-05-09T01:51:07.596Z,100.00
2018-05-09T01:53:35.080Z,100.00
2018-05-09T01:56:02.542Z,100.00
2018-05-09T01:58:30.031Z,100.00
2018-05-09T02:00:57.506Z,100.00
2018-05-09T02:03:24.972Z,100.00
2018-05-09T02:05:52.461Z,100.00
2018-05-09T02:08:19.932Z,100.00
2018-05-09T02:10:47.399Z,100.00
2018-05-09T02:13:14.900Z,100.00
2018-05-09T02:15:42.367Z,100.00
2018-05-09T02:18:09.857Z,100.00
2018-05-09T02:20:37.332Z,100.00
2018-05-09T02:23:04.811Z,100.00
2018-05-09T02:25:32.309Z,100.00
2018-05-09T02:27:59.779Z,100.00
2018-05-09T02:30:27.270Z,100.00
2018-05-09T02:32:54.741Z,100.00
2018-05-09T02:35:22.219Z,100.00
2018-05-09T02:40:47.556Z,100.00
2018-05-09T02:43:15.061Z,100.00
2018-05-09T02:45:42.531Z,100.00
2018-05-09T02:48:10.027Z,100.00
2018-05-09T02:50:37.496Z,100.00
2018-05-09T02:53:04.984Z,100.00
2018-05-09T02:55:32.458Z,100.00
2018-05-09T02:57:59.923Z,100.00
2018-05-09T03:00:27.413Z,100.00
2018-05-09T03:02:54.894Z,100.00
2018-05-09T03:05:23.804Z,100.00
2018-05-09T03:07:51.272Z,100.00
2018-05-09T03:10:19.295Z,100.00
2018-05-09T03:12:46.781Z,100.00
2018-05-09T03:15:14.256Z,100.00
2018-05-09T03:17:41.740Z,100.00
2018-05-09T03:20:09.223Z,100.00
2018-05-09T03:22:36.692Z,100.00
2018-05-09T03:25:04.183Z,100.00
2018-05-09T03:27:31.644Z,100.00
2018-05-09T03:29:59.151Z,100.00
2018-05-09T03:32:26.622Z,100.00
2018-05-09T03:34:54.088Z,100.00
2018-05-09T03:37:21.595Z,100.00
2018-05-09T03:39:49.047Z,100.00
2018-05-09T03:42:16.551Z,100.00
2018-05-09T03:44:44.025Z,100.00
2018-05-09T03:47:11.493Z,100.00
2018-05-09T03:49:38.979Z,100.00
2018-05-09T03:52:06.443Z,100.00
2018-05-09T03:54:33.940Z,100.00
2018-05-09T03:57:01.412Z,100.00
2018-05-09T03:59:28.888Z,100.00
2018-05-09T04:02:08.023Z,100.00
2018-05-09T04:04:47.121Z,100.00
2018-05-09T04:07:26.261Z,100.00
2018-05-09T04:09:56.595Z,100.00
2018-05-09T04:12:24.091Z,100.00
2018-05-09T04:14:51.612Z,100.00
2018-05-09T04:17:19.371Z,100.00
2018-05-09T04:19:46.847Z,100.00
2018-05-09T04:22:14.320Z,100.00
2018-05-09T04:24:41.803Z,100.00
2018-05-09T04:27:09.280Z,100.00
2018-05-09T04:29:36.776Z,100.00
2018-05-09T04:32:04.243Z,100.00
2018-05-09T04:34:31.715Z,100.00
2018-05-09T04:36:59.200Z,100.00
2018-05-09T04:39:26.676Z,100.00
2018-05-09T04:41:54.262Z,100.00
2018-05-09T04:44:21.666Z,100.00
2018-05-09T04:46:49.140Z,100.00
2018-05-09T04:49:16.663Z,100.00
2018-05-09T04:51:44.128Z,100.00
2018-05-09T04:54:11.883Z,100.00
2018-05-09T04:56:39.359Z,100.00
2018-05-09T04:59:06.824Z,100.00
2018-05-09T05:01:34.427Z,100.00
2018-05-09T05:04:01.892Z,100.00
2018-05-09T05:06:29.381Z,100.00
2018-05-09T05:08:56.862Z,100.00
2018-05-09T05:11:24.345Z,100.00
2018-05-09T05:13:51.819Z,100.00
2018-05-09T05:16:19.748Z,100.00
2018-05-09T05:18:47.245Z,100.00
2018-05-09T05:21:14.720Z,100.00
2018-05-09T05:23:42.207Z,100.00
2018-05-09T05:26:09.673Z,98.38
2018-05-09T05:28:37.188Z,97.70
2018-05-09T05:31:04.662Z,97.03
2018-05-09T05:33:32.156Z,96.24
2018-05-09T05:35:59.654Z,95.07
2018-05-09T05:38:27.124Z,94.89
2018-05-09T05:40:54.599Z,93.94
2018-05-09T05:43:22.089Z,93.56
2018-05-09T05:45:49.573Z,94.25
2018-05-09T05:48:17.058Z,95.15
2018-05-09T05:50:44.532Z,93.74
2018-05-09T05:53:12.000Z,93.45
2018-05-09T05:55:39.488Z,93.54
2018-05-09T05:58:06.959Z,91.98
2018-05-09T06:00:34.445Z,92.45
2018-05-09T06:03:01.909Z,90.71
2018-05-09T06:05:29.404Z,91.92
2018-05-09T06:07:56.917Z,90.31
2018-05-09T06:10:24.353Z,90.71
2018-05-09T06:12:51.831Z,90.32
2018-05-09T06:15:19.299Z,90.72
2018-05-09T06:17:46.780Z,89.35
2018-05-09T06:20:14.244Z,88.87
2018-05-09T06:22:41.728Z,90.21
2018-05-09T06:25:09.197Z,87.64
2018-05-09T06:27:36.664Z,88.98
2018-05-09T06:30:04.138Z,85.65
2018-05-09T06:32:31.601Z,85.51
2018-05-09T06:34:59.118Z,84.67
2018-05-09T06:37:26.596Z,84.78
2018-05-09T06:39:54.056Z,84.97
2018-05-09T06:42:21.534Z,84.24
2018-05-09T06:44:48.997Z,84.05
2018-05-09T06:47:16.484Z,82.96
2018-05-09T06:49:43.947Z,81.93
2018-05-09T06:52:11.404Z,80.99
2018-05-09T06:54:39.047Z,81.15
2018-05-09T06:57:06.500Z,81.31
2018-05-09T06:59:34.059Z,80.89
2018-05-09T07:02:01.519Z,80.20
2018-05-09T07:04:28.984Z,79.39
2018-05-09T07:06:56.459Z,79.50
2018-05-09T07:09:23.912Z,76.70
2018-05-09T07:11:51.401Z,76.73
2018-05-09T07:14:18.880Z,77.75
2018-05-09T07:16:46.345Z,77.63
2018-05-09T07:19:13.837Z,75.55
2018-05-09T07:21:41.305Z,75.39
2018-05-09T07:24:08.768Z,75.60
2018-05-09T07:26:36.233Z,76.46
2018-05-09T07:29:03.687Z,75.51
2018-05-09T07:31:31.158Z,74.93
2018-05-09T07:33:58.623Z,74.53
2018-05-09T07:36:26.110Z,73.73
2018-05-09T07:38:54.298Z,74.16
2018-05-09T07:41:21.779Z,72.77
2018-05-09T07:43:49.239Z,70.83
2018-05-09T07:46:16.699Z,71.37
2018-05-09T07:48:44.202Z,70.84
2018-05-09T07:51:11.669Z,72.13
2018-05-09T07:53:39.179Z,71.06
2018-05-09T07:56:06.683Z,71.35
2018-05-09T07:58:34.116Z,70.37
2018-05-09T08:01:01.594Z,69.84
2018-05-09T08:03:29.056Z,69.91
2018-05-09T08:05:56.547Z,69.82
2018-05-09T08:08:24.007Z,68.26
2018-05-09T08:10:51.468Z,69.59
2018-05-09T08:13:18.957Z,68.42
2018-05-09T08:15:46.416Z,68.61
2018-05-09T08:18:13.891Z,67.06
2018-05-09T08:20:41.615Z,67.52
2018-05-09T08:23:09.313Z,69.72
2018-05-09T08:25:36.791Z,71.22
2018-05-09T08:28:04.264Z,70.10
2018-05-09T08:30:31.740Z,70.12
2018-05-09T08:33:00.165Z,69.03
2018-05-09T08:35:27.631Z,67.54
2018-05-09T08:37:55.116Z,67.64
2018-05-09T08:40:22.576Z,68.14
2018-05-09T08:42:50.059Z,66.83
2018-05-09T08:45:17.522Z,66.85
2018-05-09T08:47:44.972Z,65.62
2018-05-09T08:50:12.455Z,64.18
2018-05-09T08:52:40.116Z,65.29
2018-05-09T08:55:07.583Z,65.04
2018-05-09T08:57:35.040Z,65.39
2018-05-09T09:00:02.518Z,62.67
2018-05-09T09:02:30.020Z,63.17
2018-05-09T09:04:57.492Z,63.42
2018-05-09T09:07:24.957Z,62.28
2018-05-09T09:09:52.425Z,61.62
2018-05-09T09:12:19.903Z,61.73
2018-05-09T09:14:47.355Z,61.94
2018-05-09T09:17:14.847Z,59.83
2018-05-09T09:19:42.305Z,59.17
2018-05-09T09:22:09.762Z,57.83
2018-05-09T09:24:37.247Z,57.35
2018-05-09T09:27:04.700Z,55.52
2018-05-09T09:29:32.631Z,55.40
2018-05-09T09:32:00.102Z,55.37
2018-05-09T09:34:27.571Z,54.59
2018-05-09T09:36:55.047Z,53.81
2018-05-09T09:39:22.516Z,52.48
2018-05-09T09:41:50.339Z,51.25
2018-05-09T09:44:17.797Z,51.54
2018-05-09T09:46:45.263Z,48.56
2018-05-09T09:49:12.728Z,44.43
2018-05-09T09:51:40.201Z,43.80
2018-05-09T09:54:07.683Z,43.67
2018-05-09T09:56:35.144Z,42.56
2018-05-09T09:59:02.600Z,41.06
2018-05-09T10:01:30.076Z,40.84
2018-05-09T10:03:57.545Z,42.48
2018-05-09T10:06:25.026Z,43.85
2018-05-09T10:08:52.476Z,44.32
2018-05-09T10:11:19.949Z,44.21
2018-05-09T10:13:47.408Z,44.40
2018-05-09T10:16:14.891Z,45.77
2018-05-09T10:18:42.349Z,44.41
2018-05-09T10:21:09.808Z,45.55
2018-05-09T10:23:37.278Z,44.39
2018-05-09T10:26:04.737Z,42.86
2018-05-09T10:28:32.194Z,43.94
2018-05-09T10:30:59.685Z,44.41
2018-05-09T10:33:27.147Z,42.13
2018-05-09T10:35:54.651Z,42.79
2018-05-09T10:38:22.103Z,44.68
2018-05-09T10:40:49.560Z,42.82
2018-05-09T10:43:18.008Z,42.95
2018-05-09T10:45:45.472Z,40.96
2018-05-09T10:48:12.959Z,41.20
2018-05-09T10:50:40.517Z,42.24
2018-05-09T10:53:07.893Z,43.63
2018-05-09T10:55:35.364Z,42.91
2018-05-09T10:58:02.820Z,39.49
2018-05-09T11:00:30.662Z,39.51
2018-05-09T11:02:58.111Z,40.31
2018-05-09T11:05:25.572Z,39.42
2018-05-09T11:07:53.052Z,39.28
2018-05-09T11:10:20.513Z,37.20
2018-05-09T11:12:47.992Z,41.27
2018-05-09T11:15:15.455Z,37.11
2018-05-09T11:17:42.912Z,37.21
2018-05-09T11:20:10.395Z,38.07
2018-05-09T11:22:37.856Z,36.15
2018-05-09T11:25:05.336Z,36.49
2018-05-09T11:27:32.800Z,35.65
2018-05-09T11:30:00.263Z,33.76
2018-05-09T11:32:27.751Z,33.64
2018-05-09T11:34:55.213Z,35.30
2018-05-09T11:37:23.571Z,33.74
2018-05-09T11:39:50.941Z,36.29
2018-05-09T11:42:18.464Z,36.13
2018-05-09T11:44:46.021Z,34.44
2018-05-09T11:47:13.463Z,35.36
2018-05-09T11:49:40.932Z,37.12
2018-05-09T11:52:08.384Z,35.84
2018-05-09T11:54:35.867Z,34.55
2018-05-09T11:57:03.324Z,35.93
2018-05-09T11:59:30.792Z,34.41
2018-05-09T12:01:58.254Z,34.68
2018-05-09T12:04:25.705Z,34.25
2018-05-09T12:06:53.187Z,32.26
2018-05-09T12:09:20.646Z,32.32
2018-05-09T12:11:48.132Z,34.50
2018-05-09T12:14:15.588Z,33.02
2018-05-09T12:16:43.070Z,32.22
2018-05-09T12:19:10.541Z,33.86
2018-05-09T12:21:38.005Z,33.60
2018-05-09T12:24:05.482Z,30.98
2018-05-09T12:26:33.248Z,32.01
2018-05-09T12:29:00.707Z,31.72
2018-05-09T12:31:28.194Z,32.83
2018-05-09T12:33:55.650Z,31.08
2018-05-09T12:36:23.177Z,29.78
2018-05-09T12:38:50.595Z,31.00
2018-05-09T12:41:18.063Z,30.19
2018-05-09T12:43:45.540Z,30.09
2018-05-09T12:46:13.000Z,32.74
2018-05-09T12:48:40.505Z,32.88
2018-05-09T12:51:07.940Z,31.52
2018-05-09T12:53:35.432Z,30.86
2018-05-09T12:56:02.927Z,32.82
2018-05-09T12:58:30.382Z,32.75
2018-05-09T13:00:57.851Z,30.22
2018-05-09T13:03:25.313Z,33.55
2018-05-09T13:05:52.796Z,32.18
2018-05-09T13:08:20.260Z,32.10
2018-05-09T13:10:47.723Z,32.10
2018-05-09T13:13:15.269Z,31.04
2018-05-09T13:15:42.667Z,30.43
2018-05-09T13:18:10.148Z,30.86
2018-05-09T13:20:38.192Z,30.30
2018-05-09T13:23:05.642Z,30.47
2018-05-09T13:25:33.111Z,30.30
2018-05-09T13:28:00.572Z,29.84
2018-05-09T13:30:28.043Z,28.56
2018-05-09T13:32:55.939Z,29.74
2018-05-09T13:35:23.404Z,28.82
2018-05-09T13:37:50.884Z,28.12
2018-05-09T13:40:18.340Z,28.69
2018-05-09T13:42:45.826Z,29.31
2018-05-09T13:45:13.287Z,28.74
2018-05-09T13:47:40.745Z,29.87
2018-05-09T13:50:08.235Z,26.76
2018-05-09T13:52:35.715Z,29.07
2018-05-09T13:55:03.191Z,30.96
2018-05-09T13:57:30.660Z,30.44
2018-05-09T13:59:58.456Z,29.83
2018-05-09T14:02:25.911Z,28.78
2018-05-09T14:04:53.376Z,28.87
2018-05-09T14:07:20.858Z,31.17
2018-05-09T14:09:48.418Z,30.11
2018-05-09T14:12:15.818Z,29.66
2018-05-09T14:14:43.271Z,29.91
2018-05-09T14:17:10.754Z,30.96
2018-05-09T14:19:38.221Z,30.16
2018-05-09T14:22:05.675Z,26.12
2018-05-09T14:24:33.156Z,25.32
2018-05-09T14:27:00.820Z,26.84
2018-05-09T14:29:28.307Z,27.68
2018-05-09T14:31:55.766Z,28.74
2018-05-09T14:34:23.220Z,31.76
2018-05-09T14:36:50.708Z,30.32
2018-05-09T14:39:20.116Z,29.19
2018-05-09T14:41:47.599Z,29.13
2018-05-09T14:44:15.049Z,30.60
2018-05-09T14:46:42.588Z,29.55
2018-05-09T14:49:09.996Z,31.31
2018-05-09T14:51:37.458Z,32.08
2018-05-09T14:54:04.933Z,31.00
2018-05-09T14:56:33.318Z,34.21
2018-05-09T14:59:00.777Z,32.55
2018-05-09T15:01:28.249Z,33.85
2018-05-09T15:03:55.716Z,32.87
2018-05-09T15:06:23.204Z,33.98
2018-05-09T15:08:50.667Z,33.99
2018-05-09T15:11:18.127Z,32.69
2018-05-09T15:13:45.599Z,34.29
2018-05-09T15:16:13.067Z,33.18
2018-05-09T15:18:40.533Z,35.93
2018-05-09T15:21:07.988Z,35.29
2018-05-09T15:23:35.453Z,37.05
2018-05-09T15:26:02.926Z,37.29
2018-05-09T15:28:30.387Z,36.10
2018-05-09T15:30:57.881Z,38.17
2018-05-09T15:33:25.359Z,37.16
2018-05-09T15:35:52.818Z,36.37
2018-05-09T15:38:20.294Z,36.44
2018-05-09T15:40:47.754Z,36.45
2018-05-09T15:43:15.228Z,38.30
2018-05-09T15:45:42.695Z,38.09
2018-05-09T15:48:10.150Z,39.42
2018-05-09T15:50:37.830Z,41.64
2018-05-09T15:53:05.295Z,44.39
2018-05-09T15:55:32.744Z,47.65
2018-05-09T15:58:00.213Z,50.35
2018-05-09T16:00:27.700Z,53.41
2018-05-09T16:02:55.184Z,58.72
2018-05-09T16:05:22.647Z,59.12
2018-05-09T16:07:50.105Z,59.98
2018-05-09T16:10:17.575Z,60.04
2018-05-09T16:12:45.026Z,56.89
2018-05-09T16:15:12.501Z,52.55
2018-05-09T16:17:39.960Z,54.64
2018-05-09T16:20:07.438Z,55.41
2018-05-09T16:22:34.935Z,56.86
2018-05-09T16:25:02.389Z,55.76
2018-05-09T16:27:29.865Z,57.30
2018-05-09T16:29:58.014Z,56.97
2018-05-09T16:32:25.532Z,57.15
2018-05-09T16:34:53.691Z,58.24
2018-05-09T16:37:21.161Z,64.80
2018-05-09T16:39:48.639Z,70.19
2018-05-09T16:42:16.140Z,65.91
2018-05-09T16:44:43.620Z,71.31
2018-05-09T16:47:11.189Z,74.18
2018-05-09T16:49:38.676Z,70.98
2018-05-09T16:52:06.159Z,92.86
2018-05-09T16:54:33.628Z,93.93
2018-05-09T16:57:01.128Z,99.10
2018-05-09T16:59:29.715Z,100.00
2018-05-09T17:01:57.745Z,100.00
2018-05-09T17:04:25.247Z,100.00
2018-05-09T17:06:52.712Z,100.00
2018-05-09T17:09:20.576Z,83.01
2018-05-09T17:11:48.044Z,86.46
2018-05-09T17:14:15.559Z,72.83
2018-05-09T17:16:43.471Z,76.92
2018-05-09T17:19:10.995Z,90.52
2018-05-09T17:21:50.356Z,95.70
2018-05-09T17:24:17.929Z,91.98
2018-05-09T17:26:45.399Z,85.25
2018-05-09T17:29:13.797Z,91.99
2018-05-09T17:31:41.591Z,100.00
2018-05-09T17:34:09.343Z,100.00
2018-05-09T17:36:37.530Z,95.74
2018-05-09T17:39:05.046Z,97.44
2018-05-09T17:41:32.512Z,100.00
2018-05-09T17:44:00.929Z,97.95
2018-05-09T17:46:29.274Z,95.57
2018-05-09T17:48:57.443Z,95.33
2018-05-09T17:51:24.913Z,95.28
2018-05-09T17:53:52.972Z,95.04
2018-05-09T17:56:20.787Z,96.85
2018-05-09T17:58:48.519Z,95.87
2018-05-09T18:01:16.653Z,99.24
2018-05-09T18:03:44.179Z,100.00
2018-05-09T18:06:13.113Z,99.89
2018-05-09T18:08:40.577Z,99.36
2018-05-09T18:11:08.041Z,100.00
2018-05-09T18:13:36.072Z,100.00
2018-05-09T18:16:04.044Z,100.00
2018-05-09T18:18:31.542Z,100.00
2018-05-09T18:20:59.104Z,100.00
2018-05-09T18:23:26.571Z,100.00
2018-05-09T18:25:54.044Z,99.87
2018-05-09T18:28:21.616Z,100.00
2018-05-09T18:30:49.110Z,100.00
2018-05-09T18:33:16.573Z,100.00
2018-05-09T18:35:44.047Z,100.00
2018-05-09T18:38:11.528Z,100.00
2018-05-09T18:40:39.001Z,100.00
2018-05-09T18:43:06.483Z,100.00
2018-05-09T18:45:33.947Z,100.00
2018-05-09T18:48:01.449Z,100.00
2018-05-09T18:50:28.919Z,100.00
2018-05-09T18:52:56.589Z,100.00
2018-05-09T18:55:24.075Z,100.00
2018-05-09T18:57:51.536Z,100.00
2018-05-09T19:00:19.319Z,100.00
2018-05-09T19:02:46.783Z,100.00
2018-05-09T19:05:14.261Z,100.00
2018-05-09T19:07:41.755Z,100.00
2018-05-09T19:10:09.222Z,100.00
2018-05-09T19:12:36.752Z,100.00
2018-05-09T19:15:04.225Z,100.00
2018-05-09T19:17:31.703Z,100.00
2018-05-09T19:19:59.178Z,100.00
2018-05-09T19:22:26.640Z,100.00
2018-05-09T19:24:54.123Z,100.00
2018-05-09T19:27:21.710Z,100.00
2018-05-09T19:29:49.210Z,100.00
2018-05-09T19:32:16.702Z,100.00
2018-05-09T19:34:44.180Z,100.00
2018-05-09T19:37:11.836Z,100.00
2018-05-09T19:39:39.305Z,100.00
2018-05-09T19:42:07.047Z,100.00
2018-05-09T19:44:34.555Z,99.12
2018-05-09T19:47:02.314Z,100.00
2018-05-09T19:49:29.787Z,100.00
2018-05-09T19:51:57.353Z,100.00
2018-05-09T19:54:24.851Z,100.00
2018-05-09T19:56:52.305Z,100.00
2018-05-09T19:59:19.874Z,99.90
2018-05-09T20:01:47.379Z,100.00
2018-05-09T20:04:14.851Z,98.29
2018-05-09T20:06:42.342Z,98.59
2018-05-09T20:09:09.815Z,98.06
2018-05-09T20:11:37.300Z,96.62
2018-05-09T20:14:04.759Z,96.84
2018-05-09T20:16:32.233Z,96.50
2018-05-09T20:18:59.713Z,97.53
2018-05-09T20:21:27.172Z,97.45
2018-05-09T20:23:54.664Z,100.00
2018-05-09T20:26:22.173Z,100.00
2018-05-09T20:28:55.539Z,100.00
2018-05-09T20:31:40.381Z,100.00
2018-05-09T20:34:07.873Z,100.00
2018-05-09T20:36:35.340Z,99.71
2018-05-09T20:39:02.808Z,99.36
2018-05-09T20:41:30.636Z,99.40
2018-05-09T20:43:58.024Z,98.40
2018-05-09T20:46:25.511Z,99.91
2018-05-09T20:48:52.989Z,100.00
2018-05-09T20:51:32.213Z,100.00
2018-05-09T20:53:59.684Z,100.00
2018-05-09T20:56:27.492Z,100.00
2018-05-09T20:58:55.022Z,97.76
2018-05-09T21:01:34.099Z,96.17
2018-05-09T21:04:01.582Z,98.46
2018-05-09T21:06:29.044Z,99.15
2018-05-09T21:08:56.507Z,98.53
2018-05-09T21:11:23.988Z,97.13
2018-05-09T21:13:51.450Z,98.66
2018-05-09T21:16:18.943Z,99.30
2018-05-09T21:18:46.409Z,98.59
2018-05-09T21:21:13.866Z,97.44
2018-05-09T21:23:41.344Z,98.59
2018-05-09T21:26:08.823Z,97.64
2018-05-09T21:28:36.307Z,96.51
2018-05-09T21:31:04.081Z,95.24
2018-05-09T21:33:31.569Z,95.24
2018-05-09T21:35:59.051Z,94.41
2018-05-09T21:38:26.512Z,94.92
2018-05-09T21:40:54.036Z,95.80
2018-05-09T21:43:21.479Z,97.84
2018-05-09T21:45:48.976Z,98.67
2018-05-09T21:48:16.440Z,100.00
2018-05-09T21:50:43.933Z,100.00
2018-05-09T21:53:11.396Z,100.00
2018-05-09T21:55:38.868Z,100.00
2018-05-09T21:58:06.361Z,100.00
2018-05-09T22:00:33.830Z,100.00
2018-05-09T22:03:01.319Z,100.00
2018-05-09T22:05:28.781Z,100.00
2018-05-09T22:07:56.263Z,100.00
2018-05-09T22:10:23.759Z,100.00
2018-05-09T22:12:51.219Z,100.00
2018-05-09T22:15:18.701Z,100.00
2018-05-09T22:17:47.051Z,100.00
2018-05-09T22:20:14.535Z,100.00
2018-05-09T22:22:42.008Z,100.00
2018-05-09T22:25:09.480Z,100.00
2018-05-09T22:27:36.985Z,100.00
2018-05-09T22:30:04.455Z,100.00
2018-05-09T22:32:31.948Z,100.00
2018-05-09T22:34:59.421Z,100.00
2018-05-09T22:37:26.896Z,100.00
2018-05-09T22:39:54.383Z,100.00
2018-05-09T22:42:21.853Z,100.00
2018-05-09T22:44:50.036Z,100.00
2018-05-09T22:47:17.505Z,100.00
2018-05-09T22:49:44.981Z,100.00
2018-05-09T22:52:12.565Z,100.00
2018-05-09T22:54:40.031Z,100.00
2018-05-09T22:57:07.532Z,100.00
2018-05-09T22:59:35.004Z,100.00
2018-05-09T23:02:02.479Z,100.00
2018-05-09T23:04:29.972Z,100.00
2018-05-09T23:06:57.438Z,100.00
2018-05-09T23:09:24.940Z,100.00
2018-05-09T23:11:52.407Z,100.00
2018-05-09T23:14:19.880Z,100.00
2018-05-09T23:16:47.368Z,100.00
2018-05-09T23:19:14.885Z,100.00
2018-05-09T23:21:42.346Z,100.00
2018-05-09T23:24:09.813Z,100.00
2018-05-09T23:26:37.281Z,100.00
2018-05-09T23:29:04.760Z,100.00
2018-05-09T23:31:32.255Z,100.00
2018-05-09T23:33:59.751Z,100.00
2018-05-09T23:36:27.217Z,100.00
2018-05-09T23:38:54.680Z,100.00
2018-05-09T23:41:22.160Z,100.00
2018-05-09T23:43:49.634Z,100.00
2018-05-09T23:46:17.514Z,100.00
2018-05-09T23:48:44.988Z,100.00
2018-05-09T23:51:12.468Z,100.00
2018-05-09T23:53:39.960Z,100.00
2018-05-09T23:56:07.642Z,100.00
2018-05-09T23:58:35.132Z,100.00
